Tres Isletas, Argentina
Current Conditions -  °F | °C
As of 5:00 PM on Thursday 23 Oct 2014 (Local Time) from SARC Reporting Station
Broken Clouds Broken Clouds  
Wind Chill: 33°   Ceiling: 20000
Heat Index: 33°   Visibility: 6mi
Dew Point: 13°   Wind: 7mph
Humidity: 29%   Direction: 50°NE
Pressure: 29.83"   Gusts: NA
Location:  26.35°S, 60.43°W
Report Text: SARC 232000Z 05006KT 9000 FEW025 BKN20033/13 Q1010
Loading
Personal Weather Stations






























Interactive Weather Map
Tropical Storm Tracking
New forecast layout! Learn more

10-Day Weather Forecast

Advertisements
Track Severe Weather on mobile